Aviation Digital Data Service (ADDS)

Output produced by TAFs form (1752 UTC 01 March 2017)
found at http://aviationweather.gov/adds/tafs/
 
KAMA 011726Z 0118/0218 VRB03KT P6SM SKC 
     FM020400 16010KT P6SM SCT250 
     FM021500 21014KT P6SM SCT250